Time;durP1;ratioP1;P1;durP2;ratioP2;P2;SDS_P1;SDS_P2;PMS_P1;PMS_P2;Temp;Humidity;BMP_temperature;BMP_pressure;BME280_temperature;BME280_humidity;BME280_pressure;Samples;Min_cycle;Max_cycle;Signal;HPM_P1;HPM_P2
2022/04/15 00:02:21;;;;;;;17.50;14.27;;;14.10;75.30;;;;;;4998471;28;20470;-47
2022/04/15 00:04:48;;;;;;;20.53;15.53;;;14.10;75.20;;;;;;4998132;28;20483;-47
2022/04/15 00:07:15;;;;;;;19.67;15.00;;;14.00;75.20;;;;;;4997687;28;20526;-47
2022/04/15 00:09:42;;;;;;;17.43;15.70;;;14.00;75.40;;;;;;4998397;28;20514;-47
2022/04/15 00:12:17;;;;;;;18.20;15.67;;;13.90;75.50;;;;;;4997693;28;20487;-47
2022/04/15 00:14:44;;;;;;;17.20;15.40;;;13.90;75.60;;;;;;4997181;28;20467;-46
2022/04/15 00:17:12;;;;;;;17.30;15.50;;;13.90;75.80;;;;;;5000198;28;20455;-47
2022/04/15 00:19:38;;;;;;;19.43;15.03;;;13.80;75.80;;;;;;4999393;28;20462;-47
2022/04/15 00:22:05;;;;;;;19.00;15.10;;;13.80;75.80;;;;;;4995605;28;20488;-46
2022/04/15 00:24:32;;;;;;;18.33;16.43;;;13.80;75.90;;;;;;4998246;28;20572;-47
2022/04/15 00:26:59;;;;;;;17.23;15.40;;;13.80;75.90;;;;;;4997181;28;20519;-46
2022/04/15 00:29:28;;;;;;;20.13;16.03;;;13.80;75.90;;;;;;4997248;28;20470;-47
2022/04/15 00:31:55;;;;;;;17.63;15.67;;;13.70;75.90;;;;;;5001336;28;20479;-46
2022/04/15 00:34:22;;;;;;;18.77;15.07;;;13.70;75.80;;;;;;4986286;28;20455;-47
2022/04/15 00:36:49;;;;;;;20.20;16.10;;;13.70;75.80;;;;;;4999951;28;20562;-47
2022/04/15 00:39:16;;;;;;;20.23;17.23;;;13.70;75.90;;;;;;4999576;28;20494;-46
2022/04/15 00:41:43;;;;;;;18.10;16.20;;;13.70;76.00;;;;;;4987326;28;20462;-46
2022/04/15 00:44:10;;;;;;;20.23;14.43;;;13.60;75.90;;;;;;4999251;28;20490;-46
2022/04/15 00:46:37;;;;;;;20.43;15.97;;;13.60;76.10;;;;;;5000294;28;20450;-46
2022/04/15 00:49:04;;;;;;;24.60;16.77;;;13.60;76.10;;;;;;4998537;28;20498;-47
2022/04/15 00:51:34;;;;;;;20.20;16.50;;;13.60;76.10;;;;;;4999056;28;20463;-47
2022/04/15 00:54:03;;;;;;;19.80;16.67;;;13.50;76.10;;;;;;4998410;28;20527;-46
2022/04/15 00:56:35;;;;;;;17.60;15.77;;;13.50;76.20;;;;;;4999002;28;20452;-47
2022/04/15 00:59:02;;;;;;;17.43;14.33;;;13.50;76.20;;;;;;5000267;28;20518;-46
2022/04/15 01:01:29;;;;;;;18.90;15.50;;;13.50;76.20;;;;;;4987218;28;20451;-47
2022/04/15 01:03:57;;;;;;;16.87;13.90;;;13.50;76.20;;;;;;4994236;28;20849;-47
2022/04/15 01:06:30;;;;;;;16.83;13.73;;;13.40;76.10;;;;;;4999768;28;20447;-46
2022/04/15 01:08:58;;;;;;;18.23;15.97;;;13.40;76.00;;;;;;5000087;28;20483;-47
2022/04/15 01:11:27;;;;;;;22.20;15.97;;;13.30;76.00;;;;;;4999417;28;20454;-45
2022/04/15 01:13:59;;;;;;;21.57;17.73;;;13.30;75.90;;;;;;4997607;28;20818;-47
2022/04/15 01:16:27;;;;;;;18.97;15.13;;;13.30;75.70;;;;;;4997183;28;20477;-46
2022/04/15 01:18:54;;;;;;;18.47;16.23;;;13.20;75.60;;;;;;5000913;28;20956;-47
2022/04/15 01:21:24;;;;;;;21.73;18.87;;;13.20;75.60;;;;;;4989650;28;20474;-47
2022/04/15 01:23:53;;;;;;;18.77;15.83;;;13.20;75.60;;;;;;5000092;28;20544;-48
2022/04/15 01:26:20;;;;;;;21.83;15.70;;;13.10;75.80;;;;;;4983196;28;20477;-47
2022/04/15 01:28:47;;;;;;;19.20;16.63;;;13.00;75.90;;;;;;4998489;28;20869;-47
2022/04/15 01:31:13;;;;;;;21.13;17.33;;;13.00;76.00;;;;;;4997460;28;20551;-47
2022/04/15 01:33:40;;;;;;;19.50;16.07;;;13.00;76.10;;;;;;4980480;28;20459;-47
2022/04/15 01:36:07;;;;;;;18.73;16.73;;;12.90;76.30;;;;;;4996758;28;20468;-47
2022/04/15 01:38:34;;;;;;;18.50;16.63;;;12.90;76.40;;;;;;4998444;28;20458;-47
2022/04/15 01:41:01;;;;;;;22.10;16.00;;;12.90;76.50;;;;;;5000542;28;20465;-47
2022/04/15 01:43:28;;;;;;;18.53;16.53;;;12.90;76.60;;;;;;4985067;28;20470;-47
2022/04/15 01:45:55;;;;;;;18.63;16.47;;;12.80;76.60;;;;;;4998090;28;20505;-47
2022/04/15 01:48:22;;;;;;;19.80;16.80;;;12.80;76.80;;;;;;4996162;28;20499;-47
2022/04/15 01:50:48;;;;;;;20.00;16.80;;;12.70;77.00;;;;;;4996997;28;20466;-47
2022/04/15 01:53:15;;;;;;;19.80;16.70;;;12.70;77.00;;;;;;4996094;28;21060;-47
2022/04/15 01:55:42;;;;;;;21.60;17.20;;;12.70;77.10;;;;;;4982264;28;20462;-47
2022/04/15 01:58:09;;;;;;;21.93;16.87;;;12.70;77.20;;;;;;4997036;28;20550;-47
2022/04/15 02:00:35;;;;;;;18.30;15.40;;;12.70;77.30;;;;;;4997599;28;20477;-47
2022/04/15 02:03:02;;;;;;;19.37;15.70;;;12.60;77.30;;;;;;4995838;28;20469;-48
2022/04/15 02:05:29;;;;;;;20.77;16.67;;;12.60;77.30;;;;;;4998528;28;20564;-47
2022/04/15 02:07:56;;;;;;;19.10;15.60;;;12.60;77.40;;;;;;4994782;28;20538;-47
2022/04/15 02:10:23;;;;;;;18.53;16.37;;;12.60;77.40;;;;;;4996642;28;20823;-47
2022/04/15 02:12:49;;;;;;;18.07;16.00;;;12.60;77.50;;;;;;4996085;28;20479;-47
2022/04/15 02:15:16;;;;;;;17.80;15.90;;;12.50;77.50;;;;;;4997457;28;20473;-47
2022/04/15 02:17:43;;;;;;;19.03;17.00;;;12.50;77.40;;;;;;4981227;28;20893;-47
2022/04/15 02:20:13;;;;;;;23.50;18.70;;;12.50;77.50;;;;;;4996641;28;20463;-47
2022/04/15 02:22:40;;;;;;;19.93;16.50;;;12.50;77.50;;;;;;4996685;28;20481;-45
2022/04/15 02:25:07;;;;;;;22.10;18.80;;;12.40;77.60;;;;;;4981988;28;20495;-44
2022/04/15 02:27:34;;;;;;;19.70;17.43;;;12.40;77.60;;;;;;4984043;28;20465;-44
2022/04/15 02:30:00;;;;;;;21.23;18.53;;;12.40;77.60;;;;;;4982066;28;20465;-44
2022/04/15 02:32:29;;;;;;;20.77;17.70;;;12.30;77.70;;;;;;4983533;28;20478;-44
2022/04/15 02:34:56;;;;;;;21.77;17.77;;;12.30;77.80;;;;;;4980590;28;20481;-44
2022/04/15 02:37:22;;;;;;;19.23;16.47;;;12.30;78.00;;;;;;4982936;28;20478;-44
2022/04/15 02:39:50;;;;;;;22.97;18.97;;;12.30;78.10;;;;;;4979335;28;20471;-44
2022/04/15 02:42:17;;;;;;;21.33;17.60;;;12.20;78.30;;;;;;4978543;28;20487;-44
2022/04/15 02:44:43;;;;;;;20.57;17.57;;;12.20;78.30;;;;;;4982578;28;20493;-44
2022/04/15 02:47:10;;;;;;;18.70;16.37;;;12.20;78.30;;;;;;4983791;28;20982;-44
2022/04/15 02:49:38;;;;;;;21.30;18.20;;;12.20;78.40;;;;;;4980560;28;20469;-44
2022/04/15 02:52:05;;;;;;;20.30;18.10;;;12.20;78.40;;;;;;4981747;28;21003;-45
2022/04/15 02:54:32;;;;;;;20.70;17.50;;;12.20;78.40;;;;;;4982379;28;20944;-45
2022/04/15 02:56:59;;;;;;;23.03;18.63;;;12.20;78.40;;;;;;4966712;28;20472;-44
2022/04/15 02:59:25;;;;;;;21.40;17.30;;;12.20;78.40;;;;;;4982844;28;20828;-44
2022/04/15 03:01:52;;;;;;;20.47;17.80;;;12.10;78.40;;;;;;4966300;28;20468;-44
2022/04/15 03:04:19;;;;;;;18.13;16.00;;;12.10;78.50;;;;;;4980444;28;20470;-44
2022/04/15 03:06:46;;;;;;;22.00;17.40;;;12.10;78.50;;;;;;4981517;28;20562;-44
2022/04/15 03:09:13;;;;;;;22.63;18.50;;;12.10;78.40;;;;;;4982966;28;20471;-44
2022/04/15 03:11:40;;;;;;;21.03;18.10;;;12.10;78.60;;;;;;4980826;28;20459;-44
2022/04/15 03:14:07;;;;;;;21.77;17.73;;;12.10;78.50;;;;;;4982822;28;20469;-44
2022/04/15 03:16:34;;;;;;;22.60;17.70;;;12.00;78.70;;;;;;4980366;28;20471;-44
2022/04/15 03:19:01;;;;;;;18.53;16.63;;;12.00;78.80;;;;;;4983880;28;20450;-44
2022/04/15 03:21:28;;;;;;;19.17;17.13;;;12.00;78.80;;;;;;4981239;28;20475;-44
2022/04/15 03:23:54;;;;;;;19.47;16.43;;;12.00;78.90;;;;;;4982062;28;20475;-44
2022/04/15 03:26:22;;;;;;;22.23;17.73;;;11.90;79.00;;;;;;4982950;28;20497;-44
2022/04/15 03:28:48;;;;;;;21.03;18.17;;;11.90;79.10;;;;;;4967323;28;20469;-44
2022/04/15 03:31:15;;;;;;;21.33;18.93;;;11.90;79.10;;;;;;4978767;28;20494;-44
2022/04/15 03:33:42;;;;;;;20.23;16.83;;;11.90;79.20;;;;;;4985237;28;20478;-44
2022/04/15 03:36:09;;;;;;;19.20;17.07;;;11.90;79.10;;;;;;4984132;28;20480;-44
2022/04/15 03:38:36;;;;;;;19.80;17.23;;;11.80;79.10;;;;;;4983313;28;20458;-45
2022/04/15 03:41:03;;;;;;;22.60;17.87;;;11.80;79.20;;;;;;4966647;28;20481;-45
2022/04/15 03:43:30;;;;;;;22.40;20.00;;;11.80;79.30;;;;;;4981820;28;20991;-45
2022/04/15 03:45:57;;;;;;;20.77;17.67;;;11.70;79.40;;;;;;4983992;28;20490;-45
2022/04/15 03:48:25;;;;;;;21.93;18.63;;;11.70;79.40;;;;;;4980297;28;20918;-45
2022/04/15 03:50:53;;;;;;;21.70;17.40;;;11.70;79.60;;;;;;4983730;28;20916;-45
2022/04/15 03:53:21;;;;;;;20.43;18.30;;;11.70;79.50;;;;;;4981474;28;20809;-46
2022/04/15 03:55:48;;;;;;;21.87;17.70;;;11.70;79.50;;;;;;4982797;28;20470;-45
2022/04/15 03:58:16;;;;;;;21.50;17.50;;;11.60;79.60;;;;;;4983172;28;20471;-45
2022/04/15 04:00:44;;;;;;;17.90;16.00;;;11.60;79.40;;;;;;4981198;28;20970;-45
2022/04/15 04:03:11;;;;;;;19.17;16.50;;;11.60;79.30;;;;;;4977456;28;20468;-45
2022/04/15 04:05:38;;;;;;;21.87;16.73;;;11.60;79.30;;;;;;4980196;28;20498;-45
2022/04/15 04:08:05;;;;;;;20.60;15.13;;;11.50;79.30;;;;;;4980138;28;20470;-45
2022/04/15 04:10:33;;;;;;;20.33;17.13;;;11.50;79.30;;;;;;4980464;28;20459;-45
2022/04/15 04:13:00;;;;;;;21.43;17.20;;;11.50;79.50;;;;;;4970281;28;20465;-45
2022/04/15 04:15:29;;;;;;;20.80;17.57;;;11.40;79.60;;;;;;4980535;28;20863;-45
2022/04/15 04:17:56;;;;;;;19.83;16.73;;;11.40;79.60;;;;;;4982150;28;20484;-45
2022/04/15 04:20:23;;;;;;;22.67;17.53;;;11.40;79.60;;;;;;4984440;28;20831;-45
2022/04/15 04:22:50;;;;;;;20.70;18.50;;;11.40;79.60;;;;;;4981091;28;20553;-45
2022/04/15 04:25:17;;;;;;;20.80;17.90;;;11.40;79.70;;;;;;4984573;28;20490;-45
2022/04/15 04:27:43;;;;;;;22.73;18.80;;;11.40;79.80;;;;;;4985887;28;20458;-45
2022/04/15 04:30:15;;;;;;;21.27;18.07;;;11.40;80.00;;;;;;4986220;28;21039;-45
2022/04/15 04:32:49;;;;;;;23.37;20.30;;;11.40;80.10;;;;;;4984982;28;20588;-45
2022/04/15 04:35:18;;;;;;;22.43;19.90;;;11.40;80.10;;;;;;4984266;28;20487;-45
2022/04/15 04:37:45;;;;;;;26.40;20.03;;;11.40;80.20;;;;;;4985631;28;20470;-45
2022/04/15 04:40:13;;;;;;;25.33;22.63;;;11.40;80.30;;;;;;4984008;28;20467;-44
2022/04/15 04:42:40;;;;;;;22.83;20.40;;;11.50;80.40;;;;;;4984274;28;20475;-44
2022/04/15 04:45:10;;;;;;;25.47;21.27;;;11.40;80.40;;;;;;4983992;28;20486;-45
2022/04/15 04:47:38;;;;;;;26.60;19.37;;;11.40;80.50;;;;;;4986151;28;20462;-45
2022/04/15 04:50:08;;;;;;;26.00;20.80;;;11.40;80.50;;;;;;4983561;28;20463;-45
2022/04/15 04:52:36;;;;;;;24.20;20.50;;;11.40;80.60;;;;;;4983432;28;20474;-45
2022/04/15 04:55:04;;;;;;;28.83;21.03;;;11.40;80.60;;;;;;4969269;28;21077;-45
2022/04/15 04:57:31;;;;;;;28.07;21.20;;;11.40;80.60;;;;;;4984655;28;20472;-45
2022/04/15 04:59:58;;;;;;;27.37;20.40;;;11.40;80.60;;;;;;4984861;28;20469;-45
2022/04/15 05:02:24;;;;;;;27.27;20.67;;;11.40;80.60;;;;;;4981341;28;20464;-45
2022/04/15 05:04:51;;;;;;;24.60;20.30;;;11.40;80.50;;;;;;4964094;28;20483;-45
2022/04/15 05:07:18;;;;;;;22.97;20.03;;;11.40;80.50;;;;;;4983526;28;21031;-45
2022/04/15 05:09:45;;;;;;;26.93;22.73;;;11.40;80.60;;;;;;4983587;28;20458;-45
2022/04/15 05:12:12;;;;;;;24.73;20.00;;;11.40;80.70;;;;;;4983580;28;20466;-45
2022/04/15 05:14:38;;;;;;;29.77;23.20;;;11.40;80.70;;;;;;4981298;28;21124;-45
2022/04/15 05:17:05;;;;;;;27.37;23.23;;;11.40;80.70;;;;;;4984182;28;20839;-42
2022/04/15 05:19:32;;;;;;;34.83;23.20;;;11.40;80.80;;;;;;4967498;28;20646;-44
2022/04/15 05:21:59;;;;;;;30.03;23.43;;;11.40;80.80;;;;;;4983177;28;20470;-44
2022/04/15 05:24:26;;;;;;;28.97;21.93;;;11.40;80.90;;;;;;4965503;28;20470;-44
2022/04/15 05:26:53;;;;;;;27.27;21.80;;;11.50;80.90;;;;;;4984865;28;20494;-44
2022/04/15 05:29:19;;;;;;;27.73;22.47;;;11.50;80.90;;;;;;4984504;28;20474;-44
2022/04/15 05:31:46;;;;;;;30.90;24.77;;;11.50;81.00;;;;;;4984609;28;20899;-45
2022/04/15 05:34:13;;;;;;;31.80;24.07;;;11.50;81.10;;;;;;4983255;28;20485;-44
2022/04/15 05:36:39;;;;;;;31.73;24.97;;;11.50;81.20;;;;;;4985101;28;20480;-45
2022/04/15 05:39:06;;;;;;;31.70;23.20;;;11.60;81.20;;;;;;4982962;28;20715;-45
2022/04/15 05:41:33;;;;;;;31.67;23.70;;;11.70;81.30;;;;;;4984990;28;20883;-45
2022/04/15 05:44:03;;;;;;;28.73;23.90;;;11.70;81.30;;;;;;4985398;28;20466;-45
2022/04/15 05:46:31;;;;;;;34.60;24.80;;;11.70;81.30;;;;;;4969515;28;20487;-44
2022/04/15 05:48:58;;;;;;;34.87;25.20;;;11.70;81.50;;;;;;4984348;28;20460;-45
2022/04/15 05:51:25;;;;;;;34.60;25.83;;;11.70;81.60;;;;;;4985143;28;20454;-45
2022/04/15 05:53:51;;;;;;;35.53;27.07;;;11.80;81.70;;;;;;4984676;28;20473;-45
2022/04/15 05:56:18;;;;;;;39.00;25.20;;;11.80;81.70;;;;;;4983144;28;20470;-45
2022/04/15 05:58:45;;;;;;;36.33;25.50;;;11.90;81.80;;;;;;4984535;28;20458;-45
2022/04/15 06:01:11;;;;;;;38.93;26.63;;;11.90;81.80;;;;;;4983191;28;20844;-45
2022/04/15 06:03:38;;;;;;;39.90;25.07;;;12.00;81.80;;;;;;4965072;28;20864;-46
2022/04/15 06:06:05;;;;;;;33.60;26.97;;;12.10;81.80;;;;;;4982397;28;20491;-44
2022/04/15 06:08:32;;;;;;;29.57;24.07;;;12.10;81.80;;;;;;4985087;28;20466;-44
2022/04/15 06:10:59;;;;;;;32.63;24.43;;;12.20;81.70;;;;;;4981591;28;20864;-44
2022/04/15 06:13:26;;;;;;;33.80;26.40;;;12.20;81.80;;;;;;4981573;28;20971;-44
2022/04/15 06:15:55;;;;;;;32.70;25.67;;;12.30;81.80;;;;;;4983027;28;20554;-44
2022/04/15 06:18:34;;;;;;;33.93;25.43;;;12.40;81.90;;;;;;4965782;28;20474;-44
2022/04/15 06:21:02;;;;;;;31.03;24.20;;;12.50;81.70;;;;;;4983355;28;20462;-45
2022/04/15 06:23:28;;;;;;;32.93;23.43;;;12.60;81.30;;;;;;4985878;28;20467;-44
2022/04/15 06:25:55;;;;;;;32.67;23.40;;;12.70;80.90;;;;;;4984722;28;20518;-45
2022/04/15 06:28:22;;;;;;;31.27;22.77;;;12.80;80.90;;;;;;4968219;28;20459;-44
2022/04/15 06:30:49;;;;;;;34.03;21.43;;;12.90;80.60;;;;;;4984793;28;21166;-44
2022/04/15 06:33:20;;;;;;;31.60;22.97;;;12.90;80.40;;;;;;4982128;28;20460;-44
2022/04/15 06:35:47;;;;;;;29.00;22.50;;;13.00;80.00;;;;;;4964943;28;20483;-44
2022/04/15 06:38:14;;;;;;;25.70;20.77;;;13.10;80.00;;;;;;4969727;28;20543;-44
2022/04/15 06:40:41;;;;;;;28.87;21.13;;;13.20;79.90;;;;;;4982900;28;20471;-45
2022/04/15 06:43:08;;;;;;;28.50;21.63;;;13.30;79.60;;;;;;4984354;28;20542;-45
2022/04/15 06:45:35;;;;;;;26.50;21.33;;;13.40;79.00;;;;;;4970249;28;20501;-45
2022/04/15 06:48:02;;;;;;;24.50;20.27;;;13.50;78.40;;;;;;4982678;28;21001;-45
2022/04/15 06:50:30;;;;;;;24.73;20.13;;;13.50;78.50;;;;;;4966815;28;20462;-45
2022/04/15 06:53:00;;;;;;;27.27;20.73;;;13.60;78.60;;;;;;4967179;28;21026;-45
2022/04/15 06:55:27;;;;;;;27.70;20.03;;;13.70;78.50;;;;;;4984261;28;20462;-45
2022/04/15 06:57:54;;;;;;;26.27;19.13;;;13.80;77.60;;;;;;4980401;28;20460;-45
2022/04/15 07:00:21;;;;;;;20.63;16.60;;;13.90;76.90;;;;;;4981374;28;20478;-45
2022/04/15 07:02:47;;;;;;;26.07;16.17;;;14.00;75.90;;;;;;4979849;28;20466;-45
2022/04/15 07:05:15;;;;;;;22.40;16.50;;;14.10;75.40;;;;;;4966196;28;20833;-45
2022/04/15 07:07:42;;;;;;;18.00;14.67;;;14.20;75.10;;;;;;4982169;28;20517;-45
2022/04/15 07:10:11;;;;;;;21.87;14.57;;;14.30;74.80;;;;;;4982245;28;21100;-45
2022/04/15 07:12:38;;;;;;;16.97;14.30;;;14.40;74.30;;;;;;4980308;28;20478;-45
2022/04/15 07:15:06;;;;;;;19.20;15.50;;;14.60;73.60;;;;;;4963774;28;20463;-45
2022/04/15 07:17:33;;;;;;;19.40;15.30;;;14.70;73.20;;;;;;4970487;28;20465;-45
2022/04/15 07:19:59;;;;;;;18.77;14.70;;;14.80;73.10;;;;;;4979127;28;20838;-45
2022/04/15 07:22:26;;;;;;;14.90;13.10;;;14.90;72.60;;;;;;4980919;28;20986;-45
2022/04/15 07:24:53;;;;;;;20.20;16.73;;;15.00;71.90;;;;;;4980417;28;20585;-45
2022/04/15 07:27:20;;;;;;;18.23;13.53;;;15.20;71.70;;;;;;4979022;28;21329;-45
2022/04/15 07:29:47;;;;;;;15.30;11.97;;;15.40;71.30;;;;;;4982550;28;20487;-45
2022/04/15 07:32:25;;;;;;;13.53;10.23;;;15.50;70.10;;;;;;4981421;28;20503;-45
2022/04/15 07:34:53;;;;;;;10.77;8.87;;;15.70;69.90;;;;;;4975327;28;21115;-45
2022/04/15 07:37:20;;;;;;;10.73;8.10;;;15.80;68.10;;;;;;4975394;28;20470;-45
2022/04/15 07:39:47;;;;;;;8.93;7.63;;;16.10;66.80;;;;;;4974536;28;20860;-45
2022/04/15 07:42:14;;;;;;;9.93;8.40;;;16.20;65.70;;;;;;4970358;28;20472;-46
2022/04/15 07:44:41;;;;;;;9.50;8.47;;;16.40;65.10;;;;;;4982322;28;21019;-45
2022/04/15 07:47:08;;;;;;;9.57;8.33;;;16.60;64.80;;;;;;4981594;28;20488;-46
2022/04/15 07:49:35;;;;;;;10.47;7.40;;;16.80;64.20;;;;;;4982850;28;20499;-45
2022/04/15 07:52:04;;;;;;;7.83;6.93;;;17.00;63.40;;;;;;4980640;28;20918;-46
2022/04/15 07:54:31;;;;;;;8.13;7.03;;;17.20;61.40;;;;;;4982734;28;20821;-46
2022/04/15 07:56:58;;;;;;;5.60;5.07;;;17.40;61.20;;;;;;4981339;28;20959;-46
2022/04/15 07:59:25;;;;;;;6.80;5.90;;;17.60;60.40;;;;;;4965664;28;20479;-46
2022/04/15 08:01:53;;;;;;;7.27;5.10;;;17.80;58.90;;;;;;4985437;28;20878;-46
2022/04/15 08:04:20;;;;;;;5.60;4.60;;;17.90;58.70;;;;;;4967454;28;20466;-46
2022/04/15 08:06:47;;;;;;;5.43;3.83;;;18.10;58.00;;;;;;4970384;28;21029;-46
2022/04/15 08:09:18;;;;;;;5.90;2.70;;;18.30;57.10;;;;;;4985178;28;21074;-46
2022/04/15 08:11:45;;;;;;;3.67;3.37;;;18.40;56.80;;;;;;4981775;28;20471;-46
2022/04/15 08:14:12;;;;;;;5.70;3.87;;;18.70;55.70;;;;;;4980424;28;20573;-45
2022/04/15 08:16:38;;;;;;;4.70;3.57;;;18.80;54.90;;;;;;4985541;28;21048;-45
2022/04/15 08:19:05;;;;;;;3.40;2.97;;;19.00;54.80;;;;;;4987195;28;21029;-45
2022/04/15 08:21:33;;;;;;;6.10;2.47;;;19.10;54.20;;;;;;4982213;28;21089;-45
2022/04/15 08:24:01;;;;;;;4.30;3.10;;;19.30;53.00;;;;;;4986237;28;20509;-46
2022/04/15 08:26:29;;;;;;;5.50;2.60;;;19.30;52.80;;;;;;4985638;28;20523;-47
2022/04/15 08:28:56;;;;;;;2.30;2.10;;;19.40;52.90;;;;;;4988597;28;20481;-46
2022/04/15 08:31:22;;;;;;;3.07;2.13;;;19.60;52.20;;;;;;4984603;28;20513;-46
2022/04/15 08:33:49;;;;;;;5.60;2.20;;;19.70;52.40;;;;;;4971448;28;20953;-46
2022/04/15 08:36:16;;;;;;;2.50;1.50;;;19.90;51.00;;;;;;4985624;28;20509;-46
2022/04/15 08:38:43;;;;;;;2.03;1.33;;;20.00;51.30;;;;;;4988754;28;20459;-46
2022/04/15 08:41:13;;;;;;;1.80;1.67;;;20.20;50.80;;;;;;4985687;28;20702;-45
2022/04/15 08:43:41;;;;;;;2.00;1.53;;;20.30;50.30;;;;;;4986602;28;20465;-45
2022/04/15 08:46:10;;;;;;;1.17;1.07;;;20.50;49.80;;;;;;4986296;28;20490;-45
2022/04/15 08:48:39;;;;;;;1.80;0.70;;;20.60;48.60;;;;;;4987177;28;20461;-45
2022/04/15 08:51:06;;;;;;;1.00;0.90;;;20.80;48.40;;;;;;4986631;28;20465;-45
2022/04/15 08:53:37;;;;;;;2.00;1.47;;;21.00;48.70;;;;;;4986436;28;21012;-45
2022/04/15 08:56:07;;;;;;;1.30;0.90;;;21.20;46.80;;;;;;4982930;28;20462;-46
2022/04/15 08:58:35;;;;;;;1.33;1.23;;;21.30;47.00;;;;;;4985130;28;20461;-46
2022/04/15 09:01:01;;;;;;;1.97;1.17;;;21.40;46.40;;;;;;4979637;28;20550;-46
2022/04/15 09:03:28;;;;;;;0.90;0.73;;;21.60;46.00;;;;;;4974613;28;20964;-46
2022/04/15 09:05:56;;;;;;;1.27;0.80;;;21.80;46.20;;;;;;4985004;28;20972;-46
2022/04/15 09:08:25;;;;;;;2.07;1.07;;;21.90;45.20;;;;;;4986778;28;20970;-46
2022/04/15 09:10:57;;;;;;;1.77;0.90;;;22.20;45.30;;;;;;4986196;28;20836;-46
2022/04/15 09:13:31;;;;;;;1.13;1.00;;;22.40;45.40;;;;;;4985012;28;20840;-46
2022/04/15 09:16:01;;;;;;;0.90;0.80;;;22.70;44.00;;;;;;4980934;28;20491;-46
2022/04/15 09:18:36;;;;;;;1.67;1.20;;;23.00;44.00;;;;;;4986652;28;20469;-46
2022/04/15 09:21:17;;;;;;;1.17;1.07;;;23.30;44.20;;;;;;4984595;28;20586;-46
2022/04/15 09:23:46;;;;;;;0.93;0.90;;;23.50;42.70;;;;;;4983139;28;20466;-46
2022/04/15 09:26:14;;;;;;;1.30;0.70;;;23.70;41.90;;;;;;4984373;28;20448;-46
2022/04/15 09:28:41;;;;;;;1.57;0.73;;;23.90;41.50;;;;;;4985160;28;20457;-46
2022/04/15 09:31:15;;;;;;;0.90;0.70;;;24.10;42.10;;;;;;4982801;28;20485;-46
2022/04/15 09:33:51;;;;;;;1.43;0.57;;;24.10;41.30;;;;;;4983537;28;20456;-46
2022/04/15 09:36:29;;;;;;;0.70;0.60;;;24.20;41.30;;;;;;4984654;28;20504;-46
2022/04/15 09:39:04;;;;;;;1.90;0.90;;;24.40;40.30;;;;;;4984999;28;20472;-46
2022/04/15 09:41:31;;;;;;;4.00;1.83;;;24.50;39.60;;;;;;4984919;28;20457;-46
2022/04/15 09:44:00;;;;;;;0.90;0.70;;;24.60;40.60;;;;;;4984172;28;20456;-46
2022/04/15 09:46:29;;;;;;;0.77;0.50;;;24.70;40.40;;;;;;4984290;28;20493;-47
2022/04/15 09:49:05;;;;;;;0.90;0.67;;;24.80;40.40;;;;;;4985779;28;20468;-46
2022/04/15 09:51:37;;;;;;;1.17;0.80;;;25.00;40.70;;;;;;4986011;28;20456;-47
2022/04/15 09:54:06;;;;;;;1.40;0.67;;;25.10;39.50;;;;;;4982708;28;20910;-46
2022/04/15 09:56:35;;;;;;;1.47;0.80;;;25.30;38.40;;;;;;4964129;28;20503;-47
2022/04/15 09:59:05;;;;;;;1.70;1.10;;;25.20;38.80;;;;;;4968688;28;20453;-47
2022/04/15 10:01:33;;;;;;;1.43;1.07;;;25.40;39.10;;;;;;4983420;28;20444;-46
2022/04/15 10:04:01;;;;;;;0.90;0.90;;;25.60;38.80;;;;;;4983793;28;20494;-47
2022/04/15 10:06:29;;;;;;;3.53;0.83;;;25.90;38.10;;;;;;4982993;28;20863;-47
2022/04/15 10:09:06;;;;;;;2.10;1.23;;;26.20;37.80;;;;;;4981761;28;20457;-47
2022/04/15 10:11:35;;;;;;;1.43;0.90;;;26.50;37.80;;;;;;4985370;28;20538;-47
2022/04/15 10:14:03;;;;;;;1.33;0.90;;;26.80;37.30;;;;;;4983339;28;20635;-47
2022/04/15 10:16:32;;;;;;;1.43;0.70;;;27.20;36.80;;;;;;4984010;28;20212;-47
2022/04/15 10:19:02;;;;;;;1.10;0.70;;;27.40;36.10;;;;;;4983767;28;20213;-47
2022/04/15 10:21:34;;;;;;;1.33;0.73;;;27.50;35.60;;;;;;4982767;28;20453;-47
2022/04/15 10:24:01;;;;;;;1.23;0.87;;;27.60;35.90;;;;;;4983359;28;20507;-47
2022/04/15 10:26:34;;;;;;;0.77;0.73;;;27.80;36.20;;;;;;4970089;28;20451;-48
2022/04/15 10:29:04;;;;;;;3.20;1.43;;;27.90;35.30;;;;;;4981662;28;20206;-47
2022/04/15 10:32:13;;;;;;;1.90;1.00;;;28.00;35.20;;;;;;4982917;28;20228;-47
2022/04/15 10:34:46;;;;;;;1.37;0.80;;;28.10;33.90;;;;;;4982183;28;20589;-47
2022/04/15 10:37:13;;;;;;;2.83;1.40;;;28.20;34.70;;;;;;4984710;28;20225;-47
2022/04/15 10:39:48;;;;;;;2.43;0.70;;;27.90;35.30;;;;;;4984889;28;20444;-47
2022/04/15 10:42:19;;;;;;;1.77;0.90;;;27.20;36.00;;;;;;4984205;28;20211;-47
2022/04/15 10:44:47;;;;;;;1.73;1.07;;;26.80;36.50;;;;;;4973342;28;20675;-46
2022/04/15 10:47:17;;;;;;;2.10;1.10;;;26.60;36.70;;;;;;4974134;28;20881;-48
2022/04/15 10:50:04;;;;;;;1.80;1.00;;;26.40;36.50;;;;;;4983486;28;20465;-47
2022/04/15 10:52:35;;;;;;;1.07;0.70;;;26.10;37.30;;;;;;4985201;28;20455;-47
2022/04/15 10:55:06;;;;;;;1.73;0.90;;;25.80;37.80;;;;;;4982346;28;20526;-47
2022/04/15 10:57:37;;;;;;;2.00;0.90;;;25.50;38.90;;;;;;4979835;28;20500;-48
2022/04/15 11:03:22;;;;;;;1.03;0.47;;;25.60;38.00;;;;;;4981838;28;20839;-47
2022/04/15 11:05:50;;;;;;;0.73;0.50;;;25.20;38.20;;;;;;4984357;28;20449;-47
2022/04/15 11:08:23;;;;;;;1.53;0.70;;;25.00;38.20;;;;;;4982096;28;20576;-46
2022/04/15 11:10:54;;;;;;;2.00;1.30;;;25.00;38.80;;;;;;4984569;28;20457;-47
2022/04/15 11:13:30;;;;;;;0.97;0.87;;;25.00;39.60;;;;;;4982851;28;20539;-46
2022/04/15 11:15:58;;;;;;;1.80;1.07;;;25.00;39.50;;;;;;4982810;28;20571;-47
2022/04/15 11:18:48;;;;;;;1.10;1.00;;;24.90;39.10;;;;;;4984927;28;20455;-46
2022/04/15 11:21:37;;;;;;;0.83;0.67;;;24.90;39.90;;;;;;4984954;28;20586;-47
2022/04/15 11:24:06;;;;;;;0.90;0.80;;;24.90;39.60;;;;;;4983925;28;20962;-47
2022/04/15 11:26:35;;;;;;;1.10;0.80;;;24.80;40.10;;;;;;4980679;28;20477;-47
2022/04/15 11:29:04;;;;;;;2.40;1.10;;;24.80;40.70;;;;;;4983724;28;20474;-46
2022/04/15 11:31:36;;;;;;;3.00;1.20;;;24.80;39.90;;;;;;4982373;28;20481;-47
2022/04/15 11:34:17;;;;;;;1.20;1.00;;;24.90;40.10;;;;;;4972196;28;20845;-46
2022/04/15 11:36:46;;;;;;;1.43;0.90;;;25.00;39.90;;;;;;4988385;28;20473;-46
2022/04/15 11:39:18;;;;;;;1.93;1.30;;;25.10;40.40;;;;;;4987591;28;20461;-46
2022/04/15 11:41:46;;;;;;;1.50;1.23;;;25.20;40.40;;;;;;4974739;28;20459;-46
2022/04/15 11:44:14;;;;;;;1.77;1.23;;;25.20;40.40;;;;;;4986914;28;20508;-47
2022/04/15 11:46:47;;;;;;;1.37;1.23;;;25.30;39.90;;;;;;4988105;28;20540;-46
2022/04/15 11:49:15;;;;;;;2.80;1.03;;;25.40;39.20;;;;;;4984501;28;20878;-47
2022/04/15 11:51:50;;;;;;;1.10;1.00;;;25.30;39.20;;;;;;4985957;28;20452;-47
2022/04/15 11:54:24;;;;;;;1.63;1.17;;;25.30;40.20;;;;;;4986447;28;20876;-47
2022/04/15 11:56:54;;;;;;;0.80;0.80;;;25.30;40.60;;;;;;4987675;28;20456;-47
2022/04/15 11:59:21;;;;;;;2.53;1.33;;;25.30;40.40;;;;;;4971750;28;20767;-47
2022/04/15 12:01:48;;;;;;;2.90;1.30;;;25.30;39.50;;;;;;4973271;28;20462;-47
2022/04/15 12:04:19;;;;;;;3.50;1.30;;;25.20;39.40;;;;;;4984527;28;20547;-47
2022/04/15 12:06:49;;;;;;;2.40;1.57;;;25.10;40.00;;;;;;4975170;28;20572;-47
2022/04/15 12:09:17;;;;;;;3.37;1.50;;;25.00;39.50;;;;;;4987283;28;20452;-47
2022/04/15 12:12:05;;;;;;;2.17;1.40;;;24.90;40.50;;;;;;4988703;28;20447;-47
2022/04/15 12:14:39;;;;;;;1.50;1.10;;;24.70;41.10;;;;;;4974773;28;20733;-47
2022/04/15 12:17:08;;;;;;;2.60;1.50;;;24.50;41.40;;;;;;4985112;28;20859;-47
2022/04/15 12:19:39;;;;;;;4.63;1.30;;;24.40;40.90;;;;;;4986110;28;20479;-47
2022/04/15 12:22:08;;;;;;;2.00;1.37;;;24.20;42.10;;;;;;4986114;28;20475;-47
2022/04/15 12:24:35;;;;;;;6.33;2.53;;;24.10;42.10;;;;;;4971937;28;20454;-47
2022/04/15 12:27:02;;;;;;;3.73;1.50;;;24.00;41.20;;;;;;4987709;28;20484;-47
2022/04/15 12:29:48;;;;;;;3.13;1.73;;;24.00;41.50;;;;;;4969747;28;20467;-47
2022/04/15 12:32:26;;;;;;;1.10;1.03;;;24.10;43.50;;;;;;4987497;28;20504;-47
2022/04/15 12:34:56;;;;;;;1.13;1.03;;;24.10;41.20;;;;;;4986922;28;20499;-47
2022/04/15 12:37:47;;;;;;;2.43;1.40;;;24.00;40.70;;;;;;4986989;28;20457;-47
2022/04/15 12:40:19;;;;;;;3.43;1.33;;;23.70;41.50;;;;;;4987110;28;20918;-46
2022/04/15 12:42:48;;;;;;;4.80;1.40;;;23.50;42.50;;;;;;4987418;28;20970;-48
2022/04/15 12:45:21;;;;;;;2.07;1.53;;;23.40;42.40;;;;;;4972935;28;20495;-47
2022/04/15 12:48:05;;;;;;;1.50;1.40;;;23.40;42.40;;;;;;4987210;28;20842;-45